createdAt,value
2022-10-22T00:07:21.679Z,30.42
2022-10-22T00:09:48.802Z,29.60
2022-10-22T00:12:15.995Z,29.33
2022-10-22T00:14:43.562Z,29.02
2022-10-22T00:17:11.752Z,29.40
2022-10-22T00:19:40.139Z,28.83
2022-10-22T00:22:10.013Z,30.88
2022-10-22T00:24:38.750Z,29.65
2022-10-22T00:27:08.573Z,29.50
2022-10-22T00:29:35.706Z,29.48
2022-10-22T00:32:04.495Z,29.65
2022-10-22T00:34:31.562Z,31.27
2022-10-22T00:36:58.506Z,29.45
2022-10-22T00:39:27.222Z,31.25
2022-10-22T00:41:56.706Z,29.50
2022-10-22T00:45:09.511Z,30.75
2022-10-22T00:47:59.374Z,31.15
2022-10-22T00:50:39.216Z,29.33
2022-10-22T00:53:18.827Z,30.60
2022-10-22T00:55:49.200Z,30.65
2022-10-22T00:58:17.631Z,30.23
2022-10-22T01:00:45.280Z,30.38
2022-10-22T01:03:12.376Z,31.00
2022-10-22T01:06:01.659Z,31.02
2022-10-22T01:08:53.719Z,30.15
2022-10-22T01:11:52.929Z,30.05
2022-10-22T01:14:27.598Z,31.05
2022-10-22T01:17:06.267Z,30.10
2022-10-22T01:19:41.673Z,30.35
2022-10-22T01:22:26.664Z,29.80
2022-10-22T01:25:05.488Z,30.98
2022-10-22T01:27:40.835Z,29.92
2022-10-22T01:30:12.392Z,29.95
2022-10-22T01:32:56.858Z,31.55
2022-10-22T01:35:31.209Z,31.13
2022-10-22T01:38:03.815Z,31.13
2022-10-22T01:40:32.640Z,32.65
2022-10-22T01:43:02.567Z,31.75
2022-10-22T01:45:35.644Z,31.27
2022-10-22T01:51:26.290Z,30.80
2022-10-22T01:54:14.763Z,30.40
2022-10-22T01:56:56.504Z,31.45
2022-10-22T01:59:41.927Z,30.30
2022-10-22T02:02:17.535Z,31.65
2022-10-22T02:04:57.996Z,30.40
2022-10-22T02:07:32.909Z,31.90
2022-10-22T02:10:01.369Z,31.00
2022-10-22T02:12:32.234Z,30.27
2022-10-22T02:15:02.568Z,30.75
2022-10-22T02:17:35.031Z,30.05
2022-10-22T02:20:27.315Z,32.38
2022-10-22T02:22:55.347Z,30.55
2022-10-22T02:25:26.900Z,31.77
2022-10-22T02:28:16.662Z,30.55
2022-10-22T02:30:52.000Z,31.27
2022-10-22T02:33:35.592Z,31.55
2022-10-22T02:36:04.820Z,32.08
2022-10-22T02:38:34.445Z,32.88
2022-10-22T02:41:02.325Z,31.33
2022-10-22T02:43:29.900Z,33.83
2022-10-22T02:45:57.213Z,33.20
2022-10-22T02:48:24.125Z,32.85
2022-10-22T02:50:51.108Z,31.48
2022-10-22T02:53:18.012Z,32.80
2022-10-22T02:55:44.902Z,34.25
2022-10-22T02:58:13.910Z,33.03
2022-10-22T03:00:40.859Z,35.00
2022-10-22T03:03:07.866Z,34.67
2022-10-22T03:05:34.789Z,33.15
2022-10-22T03:08:01.742Z,31.83
2022-10-22T03:10:28.735Z,32.63
2022-10-22T03:12:56.192Z,31.85
2022-10-22T03:15:23.175Z,32.38
2022-10-22T03:17:50.144Z,32.75
2022-10-22T03:20:17.377Z,32.17
2022-10-22T03:22:45.544Z,33.33
2022-10-22T03:25:20.884Z,32.40
2022-10-22T03:27:50.349Z,32.42
2022-10-22T03:30:17.738Z,32.70
2022-10-22T03:32:44.757Z,32.80
2022-10-22T03:35:11.648Z,31.25
2022-10-22T03:37:39.965Z,32.45
2022-10-22T03:40:09.012Z,32.47
2022-10-22T03:42:35.928Z,34.50
2022-10-22T03:45:03.004Z,34.40
2022-10-22T03:47:29.880Z,34.20
2022-10-22T03:49:56.768Z,36.20
2022-10-22T03:52:23.654Z,37.03
2022-10-22T03:54:50.648Z,39.47
2022-10-22T03:57:17.718Z,37.30
2022-10-22T03:59:46.660Z,36.50
2022-10-22T04:02:14.590Z,37.38
2022-10-22T04:04:41.556Z,37.63
2022-10-22T04:07:08.829Z,35.95
2022-10-22T04:09:36.002Z,36.97
2022-10-22T04:12:05.447Z,35.60
2022-10-22T04:14:32.752Z,37.53
2022-10-22T04:16:59.773Z,36.63
2022-10-22T04:19:26.845Z,36.63
2022-10-22T04:21:53.778Z,36.80
2022-10-22T04:24:21.118Z,35.22
2022-10-22T04:26:48.026Z,35.28
2022-10-22T04:29:16.223Z,35.97
2022-10-22T04:31:43.697Z,35.53
2022-10-22T04:34:10.648Z,35.75
2022-10-22T04:36:37.672Z,36.42
2022-10-22T04:39:05.932Z,36.22
2022-10-22T04:41:37.647Z,37.80
2022-10-22T04:44:05.904Z,35.80
2022-10-22T04:46:36.248Z,35.05
2022-10-22T04:49:03.997Z,35.55
2022-10-22T04:51:31.588Z,34.83
2022-10-22T04:53:58.674Z,34.35
2022-10-22T04:56:29.901Z,33.85
2022-10-22T04:59:03.544Z,34.10
2022-10-22T05:01:40.073Z,33.33
2022-10-22T05:04:15.252Z,33.60
2022-10-22T05:06:42.600Z,33.07
2022-10-22T05:09:18.684Z,35.70
2022-10-22T05:11:49.406Z,34.83
2022-10-22T05:14:23.952Z,33.92
2022-10-22T05:16:52.099Z,33.75
2022-10-22T05:19:26.748Z,33.50
2022-10-22T05:21:57.973Z,34.35
2022-10-22T05:24:26.165Z,36.40
2022-10-22T05:26:55.851Z,34.40
2022-10-22T05:29:23.764Z,34.10
2022-10-22T05:31:51.146Z,34.05
2022-10-22T05:34:18.101Z,36.83
2022-10-22T05:36:45.408Z,38.55
2022-10-22T05:39:13.017Z,37.35
2022-10-22T05:41:39.968Z,39.08
2022-10-22T05:44:07.053Z,38.80
2022-10-22T05:46:36.690Z,37.60
2022-10-22T05:49:06.284Z,38.40
2022-10-22T05:51:36.993Z,39.55
2022-10-22T05:54:07.984Z,38.83
2022-10-22T05:56:36.738Z,39.47
2022-10-22T05:59:06.640Z,40.13
2022-10-22T06:01:35.633Z,39.55
2022-10-22T06:04:07.706Z,39.03
2022-10-22T06:06:38.224Z,40.15
2022-10-22T06:12:08.986Z,40.15
2022-10-22T06:14:35.935Z,39.55
2022-10-22T06:17:02.988Z,39.63
2022-10-22T06:19:31.226Z,40.05
2022-10-22T06:21:58.205Z,40.88
2022-10-22T06:24:25.128Z,39.55
2022-10-22T06:26:52.815Z,40.60
2022-10-22T06:29:19.814Z,38.22
2022-10-22T06:31:46.858Z,38.75
2022-10-22T06:34:15.461Z,38.42
2022-10-22T06:36:45.991Z,38.90
2022-10-22T06:39:15.853Z,39.80
2022-10-22T06:41:42.861Z,39.10
2022-10-22T06:44:15.812Z,39.40
2022-10-22T06:46:43.652Z,39.35
2022-10-22T06:49:15.718Z,39.15
2022-10-22T06:51:42.716Z,38.72
2022-10-22T06:54:09.997Z,37.80
2022-10-22T06:56:37.182Z,37.58
2022-10-22T06:59:04.528Z,37.90
2022-10-22T07:01:34.673Z,38.15
2022-10-22T07:04:02.651Z,38.42
2022-10-22T07:06:30.426Z,38.28
2022-10-22T07:08:59.824Z,38.30
2022-10-22T07:11:30.886Z,38.83
2022-10-22T07:14:00.000Z,38.30
2022-10-22T07:16:31.148Z,37.03
2022-10-22T07:19:02.998Z,38.45
2022-10-22T07:21:31.076Z,37.92
2022-10-22T07:23:59.131Z,37.83
2022-10-22T07:26:30.628Z,37.40
2022-10-22T07:29:00.261Z,38.75
2022-10-22T07:31:28.111Z,40.05
2022-10-22T07:33:55.204Z,41.90
2022-10-22T07:36:22.207Z,36.70
2022-10-22T07:38:55.372Z,33.63
2022-10-22T07:41:24.001Z,34.10
2022-10-22T07:43:51.490Z,33.78
2022-10-22T07:46:19.665Z,34.28
2022-10-22T07:48:46.746Z,35.80
2022-10-22T07:51:14.120Z,33.83
2022-10-22T07:53:41.154Z,34.97
2022-10-22T07:56:08.822Z,32.75
2022-10-22T07:58:36.507Z,35.63
2022-10-22T08:01:05.853Z,33.53
2022-10-22T08:03:33.539Z,34.00
2022-10-22T08:06:01.259Z,35.75
2022-10-22T08:08:30.874Z,35.58
2022-10-22T08:11:01.154Z,36.65
2022-10-22T08:13:30.561Z,33.63
2022-10-22T08:15:59.688Z,34.33
2022-10-22T08:18:27.824Z,33.25
2022-10-22T08:20:54.976Z,33.55
2022-10-22T08:23:25.970Z,34.10
2022-10-22T08:28:23.776Z,33.03
2022-10-22T08:30:50.854Z,34.53
2022-10-22T08:33:17.820Z,33.25
2022-10-22T08:35:49.843Z,33.95
2022-10-22T08:38:17.798Z,33.63
2022-10-22T08:40:51.681Z,33.67
2022-10-22T08:43:39.576Z,34.10
2022-10-22T08:47:02.893Z,32.78
2022-10-22T08:49:39.833Z,34.58
2022-10-22T08:52:17.256Z,34.78
2022-10-22T08:54:58.259Z,33.95
2022-10-22T08:57:58.802Z,33.35
2022-10-22T09:00:36.606Z,34.50
2022-10-22T09:03:44.900Z,33.67
2022-10-22T09:06:14.540Z,34.83
2022-10-22T09:08:44.203Z,35.42
2022-10-22T09:11:26.936Z,41.70
2022-10-22T09:13:56.140Z,35.30
2022-10-22T09:17:03.776Z,34.53
2022-10-22T09:20:03.032Z,34.55
2022-10-22T09:22:54.856Z,36.85
2022-10-22T09:25:26.907Z,36.20
2022-10-22T09:27:58.459Z,36.38
2022-10-22T09:30:33.037Z,36.15
2022-10-22T09:33:20.174Z,36.10
2022-10-22T09:35:58.730Z,35.22
2022-10-22T09:38:33.616Z,36.22
2022-10-22T09:41:04.165Z,37.22
2022-10-22T09:43:33.550Z,35.58
2022-10-22T09:46:20.146Z,35.28
2022-10-22T09:49:04.192Z,35.30
2022-10-22T09:52:00.404Z,37.60
2022-10-22T09:54:33.202Z,36.78
2022-10-22T09:57:16.802Z,35.95
2022-10-22T09:59:48.040Z,36.25
2022-10-22T10:02:37.471Z,36.05
2022-10-22T10:05:06.557Z,34.72
2022-10-22T10:07:36.331Z,37.47
2022-10-22T10:10:18.464Z,36.17
2022-10-22T10:13:03.810Z,35.63
2022-10-22T10:16:08.905Z,37.25
2022-10-22T10:19:11.582Z,36.55
2022-10-22T10:22:01.580Z,40.28
2022-10-22T10:24:40.350Z,35.95
2022-10-22T10:27:34.490Z,34.75
2022-10-22T10:30:18.077Z,35.97
2022-10-22T10:33:20.667Z,36.30
2022-10-22T10:36:08.467Z,35.63
2022-10-22T10:38:56.279Z,43.05
2022-10-22T10:42:06.755Z,39.13
2022-10-22T10:45:02.530Z,42.00
2022-10-22T10:48:09.335Z,36.70
2022-10-22T10:50:57.683Z,36.25
2022-10-22T10:54:03.878Z,39.10
2022-10-22T10:56:41.810Z,37.88
2022-10-22T10:59:18.377Z,33.78
2022-10-22T11:02:23.477Z,34.28
2022-10-22T11:05:34.152Z,33.38
2022-10-22T11:08:26.970Z,34.97
2022-10-22T11:11:21.530Z,35.47
2022-10-22T11:14:10.375Z,41.13
2022-10-22T11:17:12.671Z,37.35
2022-10-22T11:19:57.831Z,42.15
2022-10-22T11:23:00.470Z,35.13
2022-10-22T11:25:42.538Z,32.40
2022-10-22T11:28:42.212Z,33.25
2022-10-22T11:31:16.099Z,33.22
2022-10-22T11:34:33.290Z,33.55
2022-10-22T11:37:03.480Z,33.38
2022-10-22T11:39:43.615Z,32.65
2022-10-22T11:42:34.830Z,32.15
2022-10-22T11:45:24.564Z,32.22
2022-10-22T11:48:09.590Z,33.08
2022-10-22T11:50:55.013Z,35.33
2022-10-22T11:53:37.606Z,41.45
2022-10-22T11:56:07.368Z,36.67
2022-10-22T11:58:39.545Z,37.47
2022-10-22T12:01:09.502Z,36.73
2022-10-22T12:03:49.218Z,35.53
2022-10-22T12:06:16.167Z,34.83
2022-10-22T12:08:48.642Z,34.78
2022-10-22T12:11:28.791Z,34.80
2022-10-22T12:14:35.799Z,35.17
2022-10-22T12:17:10.292Z,34.78
2022-10-22T12:19:44.107Z,36.00
2022-10-22T12:22:22.162Z,35.03
2022-10-22T12:25:04.218Z,34.70
2022-10-22T12:27:41.407Z,35.47
2022-10-22T12:30:28.358Z,35.72
2022-10-22T12:33:00.516Z,34.97
2022-10-22T12:35:48.702Z,35.50
2022-10-22T12:38:22.440Z,35.83
2022-10-22T12:40:58.233Z,36.75
2022-10-22T12:43:29.943Z,36.20
2022-10-22T12:45:59.753Z,34.92
2022-10-22T12:48:39.367Z,34.90
2022-10-22T12:51:09.986Z,35.88
2022-10-22T12:53:45.641Z,35.10
2022-10-22T12:56:20.893Z,35.97
2022-10-22T12:59:23.919Z,34.65
2022-10-22T13:01:56.422Z,33.67
2022-10-22T13:04:37.561Z,35.47
2022-10-22T13:07:17.014Z,34.50
2022-10-22T13:10:00.092Z,35.42
2022-10-22T13:12:35.845Z,36.47
2022-10-22T13:15:28.964Z,35.97
2022-10-22T13:18:21.061Z,34.80
2022-10-22T13:20:54.257Z,35.88
2022-10-22T13:26:14.938Z,35.50
2022-10-22T13:28:43.145Z,34.95
2022-10-22T13:31:18.787Z,36.15
2022-10-22T13:33:53.835Z,34.65
2022-10-22T13:36:21.299Z,34.65
2022-10-22T13:38:48.447Z,36.42
2022-10-22T13:41:31.304Z,35.65
2022-10-22T13:46:27.589Z,35.08
2022-10-22T13:48:56.939Z,37.45
2022-10-22T13:51:32.514Z,34.25
2022-10-22T13:53:59.616Z,33.10
2022-10-22T13:56:29.659Z,34.50
2022-10-22T13:58:56.695Z,34.78
2022-10-22T14:01:27.633Z,36.45
2022-10-22T14:04:02.083Z,33.42
2022-10-22T14:06:33.667Z,32.88
2022-10-22T14:09:05.923Z,34.53
2022-10-22T14:11:35.138Z,33.43
2022-10-22T14:14:04.980Z,34.42
2022-10-22T14:29:36.138Z,40.75
2022-10-22T14:32:03.134Z,40.30
2022-10-22T14:34:30.124Z,40.10
2022-10-22T14:37:17.240Z,41.08
2022-10-22T14:39:47.059Z,39.75
2022-10-22T14:42:16.442Z,39.50
2022-10-22T14:44:43.527Z,39.38
2022-10-22T14:47:10.554Z,40.08
2022-10-22T14:49:37.501Z,39.00
2022-10-22T14:52:04.557Z,36.42
2022-10-22T14:54:34.033Z,40.15
2022-10-22T14:57:03.282Z,37.05
2022-10-22T14:59:32.560Z,36.78
2022-10-22T15:01:59.758Z,37.30
2022-10-22T15:04:27.301Z,38.28
2022-10-22T15:06:57.048Z,38.72
2022-10-22T15:09:24.850Z,42.42
2022-10-22T15:11:51.975Z,42.58
2022-10-22T15:14:19.108Z,41.85
2022-10-22T15:16:46.345Z,40.53
2022-10-22T15:19:13.695Z,38.17
2022-10-22T15:24:12.704Z,37.95
2022-10-22T15:26:39.898Z,37.17
2022-10-22T15:29:07.107Z,36.33
2022-10-22T15:31:48.157Z,36.40
2022-10-22T15:34:36.658Z,35.83
2022-10-22T15:37:07.604Z,35.28
2022-10-22T15:39:35.683Z,37.40
2022-10-22T15:42:02.657Z,36.67
2022-10-22T15:44:32.595Z,35.25
2022-10-22T15:47:00.667Z,34.45
2022-10-22T15:49:28.866Z,34.35
2022-10-22T15:51:56.712Z,35.53
2022-10-22T15:54:29.696Z,32.65
2022-10-22T15:56:58.300Z,37.38
2022-10-22T15:59:26.106Z,35.78
2022-10-22T16:01:53.432Z,34.08
2022-10-22T16:04:20.637Z,32.80
2022-10-22T16:06:52.815Z,32.22
2022-10-22T16:09:23.245Z,35.72
2022-10-22T16:14:23.587Z,41.65
2022-10-22T16:16:55.729Z,37.53
2022-10-22T16:19:25.168Z,33.72
2022-10-22T16:21:55.682Z,37.47
2022-10-22T16:24:23.699Z,37.67
2022-10-22T16:26:52.724Z,36.92
2022-10-22T16:29:19.990Z,37.20
2022-10-22T16:31:47.165Z,35.08
2022-10-22T16:34:14.372Z,34.72
2022-10-22T16:36:41.686Z,33.60
2022-10-22T16:39:08.939Z,35.17
2022-10-22T16:41:36.512Z,35.53
2022-10-22T16:44:08.005Z,35.53
2022-10-22T16:46:38.684Z,34.70
2022-10-22T16:49:07.914Z,34.70
2022-10-22T16:51:35.769Z,34.33
2022-10-22T16:54:05.574Z,34.42
2022-10-22T16:56:36.641Z,34.53
2022-10-22T16:59:04.178Z,35.60
2022-10-22T17:01:31.638Z,34.90
2022-10-22T17:04:02.274Z,36.30
2022-10-22T17:06:32.710Z,39.17
2022-10-22T17:09:00.149Z,36.30
2022-10-22T17:11:30.183Z,36.65
2022-10-22T17:13:57.758Z,34.15
2022-10-22T17:16:25.654Z,37.42
2022-10-22T17:18:57.909Z,35.50
2022-10-22T17:21:25.691Z,35.17
2022-10-22T17:23:59.241Z,36.33
2022-10-22T17:26:26.891Z,33.60
2022-10-22T17:28:55.198Z,34.50
2022-10-22T17:31:29.151Z,36.65
2022-10-22T17:33:57.458Z,34.78
2022-10-22T17:36:27.546Z,32.70
2022-10-22T17:38:59.236Z,33.47
2022-10-22T17:41:31.518Z,33.88
2022-10-22T17:44:02.390Z,34.67
2022-10-22T17:46:31.688Z,37.75
2022-10-22T17:49:07.048Z,36.15
2022-10-22T17:51:34.298Z,35.47
2022-10-22T17:54:03.439Z,41.03
2022-10-22T17:56:32.949Z,35.58
2022-10-22T17:58:59.951Z,37.67
2022-10-22T18:01:32.824Z,39.78
2022-10-22T18:04:03.982Z,38.83
2022-10-22T18:06:32.441Z,63.47
2022-10-22T18:08:59.399Z,45.42
2022-10-22T18:11:28.100Z,40.50
2022-10-22T18:13:57.118Z,35.85
2022-10-22T18:16:25.448Z,33.83
2022-10-22T18:18:56.168Z,33.40
2022-10-22T18:21:26.176Z,31.23
2022-10-22T18:23:53.560Z,34.13
2022-10-22T18:26:25.875Z,32.47
2022-10-22T18:28:54.756Z,32.42
2022-10-22T18:31:24.686Z,33.97
2022-10-22T18:39:01.963Z,30.58
2022-10-22T18:41:31.341Z,32.33
2022-10-22T18:44:02.612Z,32.20
2022-10-22T18:46:31.434Z,31.80
2022-10-22T18:48:59.480Z,31.13
2022-10-22T18:51:43.201Z,31.70
2022-10-22T18:54:22.582Z,29.17
2022-10-22T18:57:00.606Z,29.08
2022-10-22T18:59:29.336Z,29.33
2022-10-22T19:02:00.554Z,28.10
2022-10-22T19:04:34.687Z,27.90
2022-10-22T19:07:01.775Z,27.40
2022-10-22T19:09:30.126Z,27.88
2022-10-22T19:11:57.146Z,27.48
2022-10-22T19:14:24.163Z,27.25
2022-10-22T19:16:51.177Z,26.67
2022-10-22T19:19:21.842Z,27.23
2022-10-22T19:21:49.364Z,26.77
2022-10-22T19:24:19.326Z,27.27
2022-10-22T19:26:47.696Z,27.17
2022-10-22T19:29:18.328Z,27.75
2022-10-22T19:31:45.970Z,26.27
2022-10-22T19:34:13.638Z,24.70
2022-10-22T19:36:40.942Z,24.17
2022-10-22T19:39:08.922Z,23.73
2022-10-22T19:41:36.434Z,24.00
2022-10-22T19:44:03.455Z,24.15
2022-10-22T19:46:32.592Z,23.15
2022-10-22T19:49:01.507Z,23.70
2022-10-22T19:51:33.339Z,22.88
2022-10-22T19:54:11.049Z,21.60
2022-10-22T19:56:38.358Z,23.23
2022-10-22T19:59:06.175Z,22.33
2022-10-22T20:01:33.311Z,24.33
2022-10-22T20:04:01.630Z,24.08
2022-10-22T20:06:29.569Z,22.65
2022-10-22T20:08:56.736Z,23.10
2022-10-22T20:11:28.557Z,23.95
2022-10-22T20:13:57.252Z,23.30
2022-10-22T20:16:29.577Z,23.25
2022-10-22T20:19:01.618Z,23.60
2022-10-22T20:21:29.800Z,22.90
2022-10-22T20:23:57.707Z,23.02
2022-10-22T20:26:28.263Z,23.38
2022-10-22T20:28:56.953Z,23.50
2022-10-22T20:31:27.843Z,23.10
2022-10-22T20:33:58.715Z,22.67
2022-10-22T20:36:27.330Z,23.30
2022-10-22T20:39:07.044Z,22.05
2022-10-22T20:41:37.734Z,23.05
2022-10-22T20:44:04.952Z,22.63
2022-10-22T20:46:33.062Z,21.83
2022-10-22T20:49:05.570Z,21.38
2022-10-22T20:51:34.825Z,20.90
2022-10-22T20:54:01.928Z,20.08
2022-10-22T20:56:29.066Z,20.75
2022-10-22T20:59:04.711Z,18.45
2022-10-22T21:01:43.351Z,18.23
2022-10-22T21:04:10.998Z,18.48
2022-10-22T21:06:40.248Z,17.35
2022-10-22T21:09:09.795Z,17.80
2022-10-22T21:11:39.226Z,17.67
2022-10-22T21:14:08.794Z,18.25
2022-10-22T21:16:36.415Z,18.60
2022-10-22T21:19:03.435Z,18.63
2022-10-22T21:21:30.358Z,17.58
2022-10-22T21:23:57.307Z,17.83
2022-10-22T21:26:24.215Z,16.65
2022-10-22T21:28:51.459Z,17.35
2022-10-22T21:31:21.998Z,17.23
2022-10-22T21:33:50.661Z,16.42
2022-10-22T21:36:22.392Z,16.33
2022-10-22T21:38:52.172Z,15.15
2022-10-22T21:41:22.520Z,15.63
2022-10-22T21:43:50.696Z,15.60
2022-10-22T21:46:24.520Z,15.40
2022-10-22T21:49:01.884Z,14.30
2022-10-22T21:51:32.201Z,14.25
2022-10-22T21:53:59.213Z,14.20
2022-10-22T21:56:33.527Z,13.75
2022-10-22T21:59:02.360Z,13.77
2022-10-22T22:01:29.516Z,13.50
2022-10-22T22:03:56.574Z,13.07
2022-10-22T22:06:29.540Z,13.77
2022-10-22T22:08:59.283Z,13.43
2022-10-22T22:11:27.772Z,13.48
2022-10-22T22:13:56.770Z,13.10
2022-10-22T22:16:30.405Z,12.82
2022-10-22T22:21:30.220Z,15.68
2022-10-22T22:23:58.367Z,14.35
2022-10-22T22:26:29.760Z,14.45
2022-10-22T22:28:59.620Z,14.23
2022-10-22T22:31:33.376Z,15.00
2022-10-22T22:34:07.150Z,14.80
2022-10-22T22:36:40.936Z,14.98
2022-10-22T22:39:14.965Z,14.55
2022-10-22T22:41:43.077Z,16.63
2022-10-22T22:44:10.462Z,15.80
2022-10-22T22:46:37.818Z,14.95
2022-10-22T22:49:06.846Z,15.63
2022-10-22T22:51:34.459Z,15.40
2022-10-22T22:54:02.369Z,14.90
2022-10-22T22:56:31.907Z,15.88
2022-10-22T22:58:59.076Z,14.82
2022-10-22T23:01:35.568Z,15.25
2022-10-22T23:04:22.568Z,15.48
2022-10-22T23:06:50.602Z,15.02
2022-10-22T23:11:52.428Z,14.35
2022-10-22T23:14:20.360Z,14.20
2022-10-22T23:16:50.791Z,14.50
2022-10-22T23:19:22.069Z,15.18
2022-10-22T23:21:53.301Z,14.80
2022-10-22T23:24:24.933Z,15.15
2022-10-22T23:26:54.307Z,16.67
2022-10-22T23:29:26.281Z,16.65
2022-10-22T23:31:54.937Z,17.30
2022-10-22T23:34:25.130Z,17.88
2022-10-22T23:36:53.468Z,17.58
2022-10-22T23:39:25.706Z,17.88
2022-10-22T23:41:53.687Z,18.43
2022-10-22T23:44:22.038Z,19.08
2022-10-22T23:46:49.480Z,18.95
2022-10-22T23:49:17.284Z,19.10
2022-10-22T23:51:44.324Z,19.00
2022-10-22T23:54:15.762Z,19.23
2022-10-22T23:56:42.719Z,19.83
2022-10-22T23:59:10.536Z,19.77
